Time;durP1;ratioP1;P1;durP2;ratioP2;P2;SDS_P1;SDS_P2;PMS_P1;PMS_P2;Temp;Humidity;BMP_temperature;BMP_pressure;BME280_temperature;BME280_humidity;BME280_pressure;Samples;Min_cycle;Max_cycle;Signal;HPM_P1;HPM_P2
2022/02/03 00:02:15;;;;;;;;;;;3.80;99.90;;;2.79;100.00;96269.22;10489273;28;1903;-70
2022/02/03 00:07:24;;;;;;;;;;;3.90;99.90;;;2.78;100.00;96267.59;10486869;28;1846;-70
2022/02/03 00:23:32;;;;;;;;;;;4.00;99.90;;;2.78;100.00;96272.91;10485311;28;2279;-70
2022/02/03 00:28:40;;;;;;;;;;;3.90;99.90;;;2.79;100.00;96279.84;10485939;28;1918;-70
2022/02/03 00:34:00;;;;;;;;;;;4.00;99.90;;;2.85;100.00;96274.50;10490019;28;1828;-69
2022/02/03 00:49:47;;;;;;;;;;;4.00;99.90;;;3.01;100.00;96286.47;10451467;28;1914;-70
2022/02/03 00:54:50;;;;;;;;;;;4.10;99.90;;;3.04;100.00;96282.56;10486793;28;2367;-70
2022/02/03 00:59:53;;;;;;;;;;;4.10;99.90;;;3.09;100.00;96288.88;10487468;28;1846;-70
2022/02/03 01:04:57;;;;;;;;;;;4.30;99.90;;;3.10;100.00;96285.16;10488901;28;1820;-69
2022/02/03 01:10:05;;;;;;;;;;;4.20;99.90;;;3.14;100.00;96286.38;10488519;28;1989;-69
2022/02/03 01:15:18;;;;;;;;;;;4.20;99.90;;;3.13;100.00;96282.09;10488358;28;1872;-69
2022/02/03 01:47:05;;;;;;;;;;;4.30;99.90;;;3.00;100.00;96266.25;10489061;28;1977;-70
2022/02/03 01:52:08;;;;;;;;;;;4.20;99.90;;;2.99;100.00;96259.31;10489492;28;1944;-70
2022/02/03 01:57:12;;;;;;;;;;;4.20;99.90;;;3.09;100.00;96258.84;10475678;28;1962;-70
2022/02/03 02:02:15;;;;;;;;;;;4.20;99.90;;;3.10;100.00;96253.28;10486794;28;1814;-69
2022/02/03 02:07:17;;;;;;;;;;;4.20;99.90;;;3.07;100.00;96240.47;10480622;28;1774;-69
2022/02/03 02:12:24;;;;;;;;;;;4.20;99.90;;;3.13;100.00;96228.97;10479036;28;1909;-69
2022/02/03 02:39:11;;;;;;;;;;;4.40;99.90;;;3.33;100.00;96214.72;10487021;28;1907;-70
2022/02/03 02:44:14;;;;;;;;;;;4.50;99.90;;;3.34;100.00;96213.69;10485819;28;1919;-69
2022/02/03 02:49:16;;;;;;;;;;;4.50;99.90;;;3.38;100.00;96209.56;10487343;28;1990;-69
2022/02/03 02:54:40;;;;;;;;;;;4.50;99.90;;;3.40;100.00;96212.81;10482661;28;2092;-69
2022/02/03 03:00:08;;;;;;;;;;;4.50;99.90;;;3.46;100.00;96218.06;10508697;22;2420;-69
2022/02/03 03:37:34;;;;;;;;;;;4.80;99.90;;;3.73;100.00;96210.66;10515471;28;2088;-70
2022/02/03 03:42:37;;;;;;;;;;;4.80;99.90;;;3.79;100.00;96211.63;10520836;28;1920;-69
2022/02/03 03:47:40;;;;;;;;;;;4.90;99.90;;;3.79;100.00;96206.31;10525931;28;1891;-71
2022/02/03 03:52:46;;;;;;;;;;;5.10;99.90;;;3.81;100.00;96206.91;10524988;28;2091;-70
2022/02/03 03:58:05;;;;;;;;;;;4.80;99.90;;;3.76;100.00;96210.25;10522765;28;2049;-71
2022/02/03 04:41:44;;;;;;;;;;;5.00;99.90;;;3.93;100.00;96183.06;10506416;28;2099;-71
2022/02/03 05:02:54;;;;;;;;;;;5.00;99.90;;;3.92;100.00;96176.09;10522194;28;1972;-70
2022/02/03 05:08:08;;;;;;;;;;;5.00;99.90;;;3.89;100.00;96174.72;10525014;28;1917;-70
2022/02/03 05:13:20;;;;;;;;;;;5.00;99.90;;;3.92;100.00;96166.28;10528174;28;1966;-71
2022/02/03 05:18:55;;;;;;;;;;;5.00;99.90;;;3.93;100.00;96165.25;10531460;28;1932;-71
2022/02/03 05:24:24;;;;;;;;;;;5.00;99.90;;;3.95;100.00;96160.53;10535801;28;2004;-70
2022/02/03 05:35:13;;;;;;;;;;;5.10;99.90;;;4.02;100.00;96160.47;10527256;28;2018;-70
2022/02/03 05:45:58;;;;;;;;;;;5.10;99.90;;;4.01;100.00;96142.88;10530173;28;2025;-71
2022/02/03 06:07:29;;;;;;;;;;;5.10;99.90;;;4.10;100.00;96149.50;10507635;28;1881;-70
2022/02/03 06:12:50;;;;;;;;;;;5.20;99.90;;;4.15;100.00;96140.88;10525239;28;2024;-71
2022/02/03 06:20:39;;;;;;;;;;;5.20;99.90;;;4.17;100.00;96136.94;10527425;28;1937;-70
2022/02/03 06:23:25;;;;;;;;;;;5.20;99.90;;;4.19;100.00;96137.50;10519688;28;1945;-71
2022/02/03 06:28:28;;;;;;;;;;;5.30;99.90;;;4.17;100.00;96131.59;10523568;28;1920;-71
2022/02/03 06:33:31;;;;;;;;;;;5.30;99.90;;;4.21;100.00;96124.00;10528351;28;2085;-71
2022/02/03 06:38:34;;;;;;;;;;;5.30;99.90;;;4.19;100.00;96137.50;10527835;28;2027;-71
2022/02/03 06:43:37;;;;;;;;;;;5.30;99.90;;;4.20;100.00;96136.50;10525280;28;1954;-70
2022/02/03 06:48:42;;;;;;;;;;;5.30;99.90;;;4.28;100.00;96128.19;10522952;28;1983;-71
2022/02/03 06:53:50;;;;;;;;;;;5.30;99.90;;;4.31;100.00;96122.41;10515961;28;2038;-71
2022/02/03 06:58:58;;;;;;;;;;;5.30;99.90;;;4.32;100.00;96121.38;10525904;28;1901;-70
2022/02/03 07:04:04;;;;;;;;;;;5.40;99.90;;;4.32;100.00;96126.69;10521525;28;1837;-70
2022/02/03 07:09:09;;;;;;;;;;;5.40;99.90;;;4.39;100.00;96109.81;10523901;28;1794;-70
2022/02/03 07:14:12;;;;;;;;;;;5.50;99.90;;;4.56;100.00;96108.94;10521100;28;1938;-70
2022/02/03 07:19:16;;;;;;;;;;;5.60;99.90;;;4.61;100.00;96113.59;10521848;28;2342;-69
2022/02/03 07:24:19;;;;;;;;;;;5.70;99.90;;;4.67;100.00;96118.03;10521701;28;1823;-72
2022/02/03 07:29:22;;;;;;;;;;;5.70;99.90;;;4.73;100.00;96116.31;10526227;28;1810;-71
2022/02/03 07:34:25;;;;;;;;;;;5.80;99.90;;;4.88;100.00;96122.81;10520834;28;1922;-72
2022/02/03 07:39:28;;;;;;;;;;;5.90;99.90;;;4.91;100.00;96105.56;10520127;28;1809;-69
2022/02/03 07:44:31;;;;;;;;;;;5.90;99.90;;;5.07;100.00;96096.06;10520368;28;1758;-70
2022/02/03 07:49:34;;;;;;;;;;;6.00;99.90;;;5.04;100.00;96091.22;10524761;28;1839;-69
2022/02/03 07:54:38;;;;;;;;;;;6.10;99.90;;;5.19;100.00;96088.91;10517861;28;2031;-69
2022/02/03 07:59:41;;;;;;;;;;;6.20;99.90;;;5.40;100.00;96085.63;10521358;28;1877;-70
2022/02/03 08:04:47;;;;;;;;;;;6.30;99.90;;;5.45;100.00;96082.28;10518444;28;1815;-68
2022/02/03 08:09:59;;;;;;;;;;;6.40;99.90;;;5.58;100.00;96071.38;10523134;28;1848;-68
2022/02/03 08:15:03;;;;;;;;;;;6.50;99.90;;;5.78;100.00;96062.97;10518888;28;1909;-69
2022/02/03 08:20:12;;;;;;;;;;;6.70;99.90;;;6.01;100.00;96066.66;10519818;28;1850;-68
2022/02/03 08:25:18;;;;;;;;;;;6.80;99.90;;;6.27;100.00;96057.28;10520598;28;1794;-69
2022/02/03 08:30:30;;;;;;;;;;;7.00;99.90;;;6.39;100.00;96050.00;10524405;28;1981;-68
2022/02/03 08:35:39;;;;;;;;;;;8.10;99.90;;;6.63;100.00;96056.84;10525084;28;1791;-68
2022/02/03 08:40:56;;;;;;;;;;;7.40;99.90;;;6.81;100.00;96050.47;10525340;28;1835;-68
2022/02/03 08:45:59;;;;;;;;;;;7.50;99.90;;;6.68;100.00;96045.41;10526746;28;1821;-69
2022/02/03 08:51:02;;;;;;;;;;;7.60;99.90;;;6.58;100.00;96053.28;10524558;28;1917;-69
2022/02/03 08:56:16;;;;;;;;;;;7.50;99.90;;;6.50;100.00;96047.28;10529045;28;1955;-68
2022/02/03 09:28:53;;;;;;;;;;;7.30;99.90;;;6.25;100.00;96030.81;10525621;28;1992;-67
2022/02/03 09:39:15;;;;;;;;;;;7.40;99.90;;;6.47;100.00;95999.69;10528310;28;1842;-69
2022/02/03 09:55:21;;;;;;;;;;;7.60;99.90;;;6.87;100.00;95990.72;10525627;28;1910;-68
2022/02/03 10:00:24;;;;;;;;;;;7.70;99.90;;;7.03;100.00;95995.22;10522617;28;1814;-68
2022/02/03 10:05:34;;;;;;;;;;;7.90;99.90;;;7.23;100.00;95980.50;10521301;28;1751;-68
2022/02/03 10:10:38;;;;;;;;;;;8.10;99.90;;;7.60;100.00;95978.03;10528289;28;2059;-71
2022/02/03 10:15:44;;;;;;;;;;;8.30;99.90;;;7.90;99.73;95964.22;10529794;28;2005;-68
2022/02/03 10:20:47;;;;;;;;;;;8.60;99.90;;;8.17;95.40;95958.03;10519366;28;1869;-69
2022/02/03 10:25:54;;;;;;;;;;;8.80;99.90;;;8.26;92.77;95943.13;10524193;28;1908;-71
2022/02/03 10:31:01;;;;;;;;;;;9.00;99.90;;;8.07;95.02;95927.41;10523907;28;1913;-70
2022/02/03 10:36:10;;;;;;;;;;;9.00;99.90;;;8.30;92.69;95920.94;10532269;28;1873;-70
2022/02/03 10:57:59;;;;;;;;;;;;;;;9.43;86.41;95880.34;10509516;28;1854;-71
2022/02/03 11:03:17;;;;;;;;;;;;;;;9.32;88.06;95867.16;10516989;28;1938;-72
2022/02/03 11:08:26;;;;;;;;;;;10.00;99.90;;;9.08;87.25;95862.22;10521887;28;1864;-69
2022/02/03 11:13:32;;;;;;;;;;;10.10;99.90;;;9.57;89.68;95880.66;10521814;28;1985;-69
2022/02/03 11:18:35;;;;;;;;;;;10.50;99.90;;;9.89;87.52;95853.59;10524803;28;1870;-69
2022/02/03 11:23:45;;;;;;;;;;;;;;;10.27;83.76;95846.13;10523144;28;1950;-71
2022/02/03 11:29:09;;;;;;;;;;;;;;;10.60;83.90;95836.66;10524845;28;1833;-72
2022/02/03 11:34:38;;;;;;;;;;;10.90;99.90;;;10.36;79.32;95844.50;10524523;28;1910;-71
2022/02/03 11:50:32;;;;;;;;;;;10.80;99.90;;;9.55;84.50;95818.41;10523094;28;1813;-68
2022/02/03 12:06:57;;;;;;;;;;;10.20;99.90;;;9.09;82.79;95793.31;10523554;28;1873;-71
2022/02/03 12:28:14;;;;;;;;;;;10.70;99.90;;;10.05;77.73;95711.25;10524665;28;1799;-70
2022/02/03 12:38:48;;;;;;;;;;;10.80;99.90;;;9.68;80.71;95689.03;10528505;28;1855;-70
2022/02/03 12:43:56;;;;;;;;;;;10.70;99.90;;;10.19;82.88;95672.03;10529290;28;1786;-70
2022/02/03 12:49:00;;;;;;;;;;;10.80;99.90;;;9.83;78.32;95685.53;10530354;28;1863;-70
2022/02/03 12:54:03;;;;;;;;;;;10.80;99.90;;;9.94;80.72;95678.28;10532220;28;2032;-71
2022/02/03 12:59:10;;;;;;;;;;;10.80;99.90;;;9.92;79.98;95667.78;10542028;28;1755;-71
2022/02/03 13:04:15;;;;;;;;;;;10.90;99.90;;;10.05;76.96;95658.34;10534950;28;1848;-70
2022/02/03 13:09:18;;;;;;;;;;;11.00;99.90;;;10.27;77.85;95656.19;10527999;28;1928;-71
2022/02/03 13:14:30;;;;;;;;;;;11.00;99.90;;;9.87;74.31;95654.38;10527652;28;2184;-69
2022/02/03 13:19:42;;;;;;;;;;;11.00;99.90;;;9.53;76.24;95631.88;10528737;28;1743;-69
2022/02/03 13:30:15;;;;;;;;;;;10.60;99.90;;;9.69;75.65;95618.16;10519020;28;1885;-67
2022/02/03 13:35:24;;;;;;;;;;;10.70;99.90;;;9.49;77.10;95612.84;10535391;28;1936;-68
2022/02/03 13:40:29;;;;;;;;;;;10.60;99.90;;;9.49;77.69;95596.75;10528936;28;1810;-69
2022/02/03 13:45:32;;;;;;;;;;;10.50;99.90;;;9.47;78.66;95590.81;10530181;28;1909;-71
2022/02/03 13:50:35;;;;;;;;;;;10.50;99.90;;;9.50;79.81;95574.19;10527926;28;1845;-68
2022/02/03 14:22:40;;;;;;;;;;;10.00;99.90;;;8.83;89.15;95540.44;10535044;28;1436;-66
2022/02/03 14:27:44;;;;;;;;;;;10.00;99.90;;;8.65;90.15;95537.25;10534587;28;1453;-67
2022/02/03 14:32:50;;;;;;;;;;;9.90;99.90;;;8.72;87.59;95525.47;10538365;28;2236;-67
2022/02/03 14:38:03;;;;;;;;;;;9.80;99.90;;;8.68;87.08;95527.84;10534450;28;1786;-68
2022/02/03 14:43:07;;;;;;;;;;;9.80;99.90;;;8.63;86.72;95520.63;10527042;28;1759;-70
2022/02/03 14:48:14;;;;;;;;;;;9.80;99.90;;;8.52;86.98;95527.03;10526076;28;1844;-67
2022/02/03 14:53:28;;;;;;;;;;;9.70;99.90;;;8.56;84.17;95508.56;10525251;28;1988;-68
2022/02/03 14:58:31;;;;;;;;;;;9.60;99.90;;;8.45;84.86;95483.63;10527673;28;1846;-71
2022/02/03 15:03:35;;;;;;;;;;;9.50;99.90;;;8.35;82.48;95495.16;10512066;28;1853;-67
2022/02/03 15:08:57;;;;;;;;;;;9.50;99.90;;;8.14;83.49;95498.81;10526551;28;1914;-68
2022/02/03 15:14:12;;;;;;;;;;;9.40;99.90;;;8.12;81.92;95496.41;10525857;28;1985;-68
2022/02/03 15:19:16;;;;;;;;;;;9.30;99.90;;;7.96;83.29;95488.63;10523865;28;1862;-69
2022/02/03 15:24:18;;;;;;;;;;;9.20;99.90;;;7.84;82.42;95472.78;10525083;28;1754;-69
2022/02/03 15:29:21;;;;;;;;;;;9.10;99.90;;;7.77;82.83;95474.91;10523755;28;1846;-70
2022/02/03 15:34:24;;;;;;;;;;;8.90;99.90;;;7.70;83.43;95485.03;10523600;28;1910;-70
2022/02/03 15:39:35;;;;;;;;;;;8.90;99.90;;;7.57;85.47;95486.31;10521899;28;1877;-67
2022/02/03 15:44:41;;;;;;;;;;;8.80;99.90;;;7.49;85.13;95476.94;10520934;28;1651;-70
2022/02/03 15:50:14;;;;;;;;;;;8.70;99.90;;;7.41;86.09;95461.41;10520058;28;1730;-69
2022/02/03 16:16:55;;;;;;;;;;;8.20;99.90;;;6.83;92.65;95478.44;10420752;28;1918;-70
2022/02/03 16:22:03;;;;;;;;;;;8.10;99.90;;;6.73;93.42;95490.66;10523091;28;1870;-70
2022/02/03 16:54:12;;;;;;;;;;;7.70;99.90;;;6.40;95.64;95465.03;10518056;28;1979;-69
2022/02/03 16:59:15;;;;;;;;;;;7.60;99.90;;;6.34;97.22;95454.56;10519989;28;1841;-69
2022/02/03 17:04:19;;;;;;;;;;;7.60;99.90;;;6.35;97.29;95462.31;10519106;28;1822;-69
2022/02/03 17:09:22;;;;;;;;;;;7.60;99.90;;;6.39;96.16;95442.06;10527388;28;1828;-69
2022/02/03 17:14:27;;;;;;;;;;;7.60;99.90;;;6.31;96.25;95450.56;10529963;28;1926;-67
2022/02/03 17:19:30;;;;;;;;;;;7.50;99.90;;;6.19;98.45;95468.59;10528853;28;1948;-69
2022/02/03 17:24:35;;;;;;;;;;;7.50;99.90;;;6.17;98.64;95470.69;10531934;28;1928;-69
2022/02/03 17:29:52;;;;;;;;;;;7.40;99.90;;;6.07;99.64;95455.41;10533464;28;1915;-68
2022/02/03 18:50:15;;;;;;;;;;;6.80;99.90;;;5.63;100.00;95433.31;10523462;28;1856;-70
2022/02/03 18:55:24;;;;;;;;;;;6.80;99.90;;;5.60;100.00;95402.66;10519073;28;1890;-69
2022/02/03 20:05:01;;;;;;;;;;;6.80;99.90;;;5.62;100.00;95407.72;10521709;28;1850;-69
2022/02/03 20:10:14;;;;;;;;;;;6.70;99.90;;;5.45;100.00;95389.13;10522192;28;1530;-69
2022/02/03 20:15:20;;;;;;;;;;;6.70;99.90;;;5.39;100.00;95388.28;10520758;28;1910;-69
2022/02/03 20:20:23;;;;;;;;;;;6.80;99.90;;;5.35;100.00;95381.03;10523805;28;1539;-70
2022/02/03 20:25:27;;;;;;;;;;;6.60;99.90;;;5.34;100.00;95393.56;10520392;28;1547;-68
2022/02/03 20:30:30;;;;;;;;;;;6.50;99.90;;;5.27;100.00;95386.78;10522694;28;1336;-70
2022/02/03 20:35:34;;;;;;;;;;;6.50;99.90;;;5.24;100.00;95385.44;10522477;28;1975;-69
2022/02/03 20:40:37;;;;;;;;;;;6.50;99.90;;;5.21;100.00;95387.78;10526515;28;1410;-70
2022/02/03 20:45:44;;;;;;;;;;;6.40;99.90;;;5.16;100.00;95385.91;10531830;28;1453;-70
2022/02/03 20:50:49;;;;;;;;;;;6.40;99.90;;;5.16;100.00;95375.22;10529405;28;1626;-70
2022/02/03 20:55:51;;;;;;;;;;;6.30;99.90;;;5.12;100.00;95363.44;10529557;28;1971;-70
2022/02/03 21:00:57;;;;;;;;;;;6.30;99.90;;;5.13;100.00;95354.41;10526885;28;1795;-69
2022/02/03 21:06:02;;;;;;;;;;;6.50;99.90;;;5.11;100.00;95356.53;10529245;28;1552;-69
2022/02/03 21:11:06;;;;;;;;;;;6.30;99.90;;;5.02;100.00;95368.66;10529643;28;1315;-71
2022/02/03 21:16:09;;;;;;;;;;;5.30;99.90;;;4.85;100.00;95347.44;10529307;28;1952;-70
2022/02/03 21:21:13;;;;;;;;;;;6.10;99.90;;;4.74;100.00;95354.47;10523064;28;1511;-69
2022/02/03 21:26:28;;;;;;;;;;;6.10;99.90;;;4.64;100.00;95354.31;10529765;28;1441;-71
2022/02/03 21:31:32;;;;;;;;;;;6.30;99.90;;;4.62;100.00;95329.81;10520736;28;1512;-70
2022/02/03 21:36:38;;;;;;;;;;;5.90;99.90;;;4.45;100.00;95335.19;10528247;28;1918;-70
2022/02/03 21:41:42;;;;;;;;;;;5.80;99.90;;;4.32;100.00;95339.00;10529902;28;1893;-71
2022/02/03 21:46:44;;;;;;;;;;;5.70;99.90;;;4.19;100.00;95336.66;10526492;28;1421;-70
2022/02/03 21:51:48;;;;;;;;;;;5.60;99.90;;;4.15;100.00;95324.94;10527171;28;1496;-68
2022/02/03 21:56:51;;;;;;;;;;;5.50;99.90;;;4.10;100.00;95322.19;10521837;28;1989;-71
2022/02/03 22:01:54;;;;;;;;;;;5.40;99.90;;;4.13;100.00;95327.00;10521919;28;1507;-70
2022/02/03 22:06:57;;;;;;;;;;;5.40;99.90;;;4.12;100.00;95325.41;10523577;28;1555;-68
2022/02/03 22:11:59;;;;;;;;;;;5.40;99.90;;;4.12;100.00;95337.91;10522267;28;1419;-69
2022/02/03 22:17:02;;;;;;;;;;;5.40;99.90;;;3.98;100.00;95332.09;10524947;28;1984;-69
2022/02/03 22:22:14;;;;;;;;;;;5.30;99.90;;;3.82;100.00;95314.28;10521592;28;1668;-68
2022/02/03 22:27:36;;;;;;;;;;;5.20;99.90;;;3.68;100.00;95338.53;10524924;28;1953;-69
2022/02/03 22:43:54;;;;;;;;;;;4.70;99.90;;;3.15;100.00;95329.13;10524492;28;1893;-69
2022/02/03 22:48:57;;;;;;;;;;;4.60;99.90;;;3.02;100.00;95324.09;10521921;28;1849;-68
2022/02/03 22:54:00;;;;;;;;;;;4.50;99.90;;;2.93;100.00;95331.66;10523798;28;1914;-68
2022/02/03 23:04:19;;;;;;;;;;;4.30;99.90;;;2.87;100.00;95337.09;10491708;28;1899;-69
2022/02/03 23:09:39;;;;;;;;;;;4.30;99.90;;;2.78;100.00;95341.94;10526184;28;1883;-69
2022/02/03 23:15:15;;;;;;;;;;;4.20;99.90;;;2.76;100.00;95345.88;10518658;28;1941;-68
2022/02/03 23:20:22;;;;;;;;;;;4.20;99.90;;;2.81;100.00;95348.66;10521442;28;1855;-69
2022/02/03 23:25:25;;;;;;;;;;;4.10;99.90;;;2.95;100.00;95334.88;10520436;28;1824;-69
2022/02/03 23:30:29;;;;;;;;;;;4.20;99.90;;;3.10;100.00;95328.22;10520892;28;2053;-69
2022/02/03 23:35:33;;;;;;;;;;;4.30;99.90;;;3.21;100.00;95320.22;10526858;28;1911;-68
2022/02/03 23:46:24;;;;;;;;;;;4.50;99.90;;;3.55;100.00;95346.03;10504215;28;1756;-68
